createdAt,value
2018-04-19T00:00:40.316Z,99.90
2018-04-19T00:03:14.954Z,99.90
2018-04-19T00:05:48.882Z,99.90
2018-04-19T00:08:23.235Z,99.90
2018-04-19T00:10:58.609Z,99.90
2018-04-19T00:13:33.023Z,99.90
2018-04-19T00:16:07.790Z,99.90
2018-04-19T00:18:42.160Z,99.90
2018-04-19T00:21:16.698Z,99.90
2018-04-19T00:23:51.306Z,99.90
2018-04-19T00:26:26.180Z,99.90
2018-04-19T00:29:00.204Z,99.90
2018-04-19T00:31:34.869Z,99.90
2018-04-19T00:34:08.767Z,99.90
2018-04-19T00:36:43.558Z,99.90
2018-04-19T00:39:18.121Z,99.90
2018-04-19T00:41:51.945Z,99.90
2018-04-19T00:44:25.830Z,99.90
2018-04-19T00:47:01.091Z,99.90
2018-04-19T00:49:35.990Z,99.90
2018-04-19T00:52:10.288Z,99.90
2018-04-19T00:54:45.474Z,99.90
2018-04-19T00:57:19.223Z,99.90
2018-04-19T00:59:53.763Z,99.90
2018-04-19T01:02:28.095Z,99.90
2018-04-19T01:05:02.232Z,99.90
2018-04-19T01:07:37.491Z,99.90
2018-04-19T01:10:12.493Z,99.90
2018-04-19T01:12:46.335Z,99.90
2018-04-19T01:15:20.976Z,99.90
2018-04-19T01:17:54.835Z,99.90
2018-04-19T01:20:28.719Z,99.90
2018-04-19T01:23:02.712Z,99.90
2018-04-19T01:25:36.382Z,99.90
2018-04-19T01:28:10.151Z,99.90
2018-04-19T01:30:45.208Z,99.90
2018-04-19T01:33:18.872Z,99.90
2018-04-19T01:36:05.372Z,99.90
2018-04-19T01:38:39.429Z,99.90
2018-04-19T01:41:13.466Z,99.90
2018-04-19T01:43:47.189Z,99.90
2018-04-19T01:46:21.548Z,99.90
2018-04-19T01:48:55.707Z,99.90
2018-04-19T01:51:29.551Z,99.90
2018-04-19T01:54:05.256Z,99.90
2018-04-19T01:56:40.279Z,99.90
2018-04-19T01:59:15.388Z,99.90
2018-04-19T02:01:49.100Z,99.90
2018-04-19T02:04:24.350Z,99.90
2018-04-19T02:06:58.188Z,99.90
2018-04-19T02:09:33.143Z,99.90
2018-04-19T02:12:07.667Z,99.90
2018-04-19T02:14:41.798Z,99.90
2018-04-19T02:17:15.611Z,99.90
2018-04-19T02:19:49.479Z,99.90
2018-04-19T02:22:23.210Z,99.90
2018-04-19T02:24:57.803Z,99.90
2018-04-19T02:27:31.731Z,99.90
2018-04-19T02:30:05.860Z,99.90
2018-04-19T02:32:39.715Z,99.90
2018-04-19T02:35:14.418Z,99.90
2018-04-19T02:37:48.044Z,99.90
2018-04-19T02:40:22.297Z,99.90
2018-04-19T02:42:56.985Z,99.90
2018-04-19T02:45:31.534Z,99.90
2018-04-19T02:48:07.074Z,99.90
2018-04-19T02:50:41.042Z,99.90
2018-04-19T02:53:15.879Z,99.90
2018-04-19T02:55:50.412Z,99.90
2018-04-19T02:58:23.947Z,99.90
2018-04-19T03:00:57.710Z,99.90
2018-04-19T03:03:32.489Z,99.90
2018-04-19T03:06:07.112Z,99.90
2018-04-19T03:08:41.095Z,99.90
2018-04-19T03:11:15.902Z,99.90
2018-04-19T03:13:50.365Z,99.90
2018-04-19T03:16:25.118Z,99.90
2018-04-19T03:18:59.067Z,99.90
2018-04-19T03:21:34.000Z,99.90
2018-04-19T03:24:07.899Z,99.90
2018-04-19T03:26:43.232Z,99.90
2018-04-19T03:29:16.822Z,99.90
2018-04-19T03:31:51.355Z,99.90
2018-04-19T03:34:26.052Z,99.90
2018-04-19T03:36:59.883Z,99.90
2018-04-19T03:39:34.535Z,99.90
2018-04-19T03:42:10.006Z,99.90
2018-04-19T03:44:44.900Z,99.90
2018-04-19T03:47:18.891Z,99.90
2018-04-19T03:49:52.390Z,99.90
2018-04-19T03:52:27.469Z,99.90
2018-04-19T03:55:02.137Z,99.90
2018-04-19T03:57:36.232Z,99.90
2018-04-19T04:00:10.245Z,99.90
2018-04-19T04:02:44.180Z,99.90
2018-04-19T04:05:18.049Z,99.90
2018-04-19T04:07:52.685Z,99.90
2018-04-19T04:10:27.385Z,99.90
2018-04-19T04:13:01.847Z,99.90
2018-04-19T04:15:36.768Z,99.90
2018-04-19T04:18:22.615Z,99.90
2018-04-19T04:21:08.919Z,99.90
2018-04-19T04:23:51.687Z,99.90
2018-04-19T04:26:26.266Z,99.90
2018-04-19T04:29:00.220Z,99.90
2018-04-19T04:31:34.171Z,99.90
2018-04-19T04:34:09.125Z,99.90
2018-04-19T04:36:43.075Z,99.90
2018-04-19T04:39:16.650Z,99.90
2018-04-19T04:41:50.269Z,99.90
2018-04-19T04:44:24.680Z,99.90
2018-04-19T04:46:59.210Z,99.90
2018-04-19T04:49:33.104Z,99.90
2018-04-19T04:52:08.559Z,99.90
2018-04-19T04:54:43.600Z,99.90
2018-04-19T04:57:17.878Z,99.90
2018-04-19T04:59:52.725Z,99.90
2018-04-19T05:02:27.860Z,99.90
2018-04-19T05:05:03.116Z,99.90
2018-04-19T05:07:38.213Z,99.90
2018-04-19T05:10:11.863Z,99.90
2018-04-19T05:12:45.766Z,99.90
2018-04-19T05:15:19.355Z,99.90
2018-04-19T05:17:53.398Z,99.90
2018-04-19T05:20:29.858Z,99.90
2018-04-19T05:23:03.682Z,99.90
2018-04-19T05:25:38.815Z,99.90
2018-04-19T05:28:12.526Z,99.90
2018-04-19T05:30:47.391Z,99.90
2018-04-19T05:33:21.870Z,99.90
2018-04-19T05:35:56.005Z,99.90
2018-04-19T05:38:30.234Z,99.90
2018-04-19T05:41:04.852Z,99.90
2018-04-19T05:43:39.438Z,99.90
2018-04-19T05:46:13.414Z,99.90
2018-04-19T05:48:48.813Z,99.90
2018-04-19T05:51:23.684Z,99.90
2018-04-19T05:53:57.893Z,99.90
2018-04-19T05:56:31.638Z,99.90
2018-04-19T05:59:05.583Z,99.90
2018-04-19T06:01:40.157Z,99.90
2018-04-19T06:04:14.634Z,99.90
2018-04-19T06:06:48.970Z,99.90
2018-04-19T06:09:23.494Z,99.90
2018-04-19T06:11:58.121Z,99.90
2018-04-19T06:14:33.321Z,99.90
2018-04-19T06:17:07.027Z,99.90
2018-04-19T06:19:41.751Z,99.90
2018-04-19T06:22:15.555Z,99.90
2018-04-19T06:24:50.179Z,99.90
2018-04-19T06:27:25.017Z,99.90
2018-04-19T06:29:59.860Z,99.90
2018-04-19T06:32:35.852Z,99.80
2018-04-19T06:35:10.527Z,98.60
2018-04-19T06:37:44.218Z,98.50
2018-04-19T06:40:19.051Z,97.50
2018-04-19T06:42:52.635Z,97.50
2018-04-19T06:45:26.360Z,97.70
2018-04-19T06:48:01.807Z,97.10
2018-04-19T06:50:36.967Z,96.30
2018-04-19T06:53:11.762Z,96.60
2018-04-19T06:55:45.379Z,96.60
2018-04-19T06:58:19.263Z,96.40
2018-04-19T07:00:53.298Z,95.70
2018-04-19T07:03:28.031Z,94.60
2018-04-19T07:06:01.934Z,94.60
2018-04-19T07:08:36.698Z,93.20
2018-04-19T07:11:10.571Z,93.20
2018-04-19T07:13:44.823Z,93.30
2018-04-19T07:16:18.766Z,93.40
2018-04-19T07:18:53.617Z,92.00
2018-04-19T07:21:29.271Z,92.40
2018-04-19T07:24:04.108Z,91.80
2018-04-19T07:26:38.815Z,92.50
2018-04-19T07:29:13.191Z,92.50
2018-04-19T07:31:47.438Z,91.50
2018-04-19T07:34:22.133Z,91.30
2018-04-19T07:36:56.198Z,91.30
2018-04-19T07:39:30.193Z,91.50
2018-04-19T07:42:06.219Z,90.80
2018-04-19T07:44:39.953Z,90.80
2018-04-19T07:47:14.336Z,90.20
2018-04-19T07:49:48.775Z,90.60
2018-04-19T07:52:23.626Z,88.30
2018-04-19T07:54:57.926Z,88.30
2018-04-19T07:57:31.966Z,87.10
2018-04-19T08:00:06.131Z,87.80
2018-04-19T08:02:40.759Z,78.10
2018-04-19T08:05:15.447Z,78.10
2018-04-19T08:07:49.452Z,80.00
2018-04-19T08:10:23.328Z,80.60
2018-04-19T08:12:57.005Z,75.40
2018-04-19T08:15:31.016Z,76.00
2018-04-19T08:18:05.021Z,72.40
2018-04-19T08:20:39.880Z,65.90
2018-04-19T08:23:14.146Z,65.90
2018-04-19T08:25:47.690Z,64.00
2018-04-19T08:28:21.479Z,67.30
2018-04-19T08:30:55.300Z,67.20
2018-04-19T08:33:28.977Z,69.00
2018-04-19T08:36:02.795Z,60.20
2018-04-19T08:38:38.665Z,56.40
2018-04-19T08:41:12.422Z,56.80
2018-04-19T08:43:46.363Z,55.50
2018-04-19T08:46:20.110Z,57.60
2018-04-19T08:48:54.390Z,57.00
2018-04-19T08:51:28.956Z,57.40
2018-04-19T08:54:04.140Z,54.00
2018-04-19T08:56:39.071Z,54.20
2018-04-19T08:59:13.431Z,54.10
2018-04-19T09:01:48.319Z,53.30
2018-04-19T09:04:22.844Z,53.50
2018-04-19T09:06:57.015Z,53.40
2018-04-19T09:09:31.423Z,51.50
2018-04-19T09:12:06.417Z,52.90
2018-04-19T09:14:40.506Z,52.90
2018-04-19T09:17:15.565Z,54.10
2018-04-19T09:19:49.168Z,53.20
2018-04-19T09:22:22.920Z,51.70
2018-04-19T09:24:57.074Z,50.10
2018-04-19T09:27:31.434Z,50.20
2018-04-19T09:30:05.909Z,50.10
2018-04-19T09:32:39.509Z,50.10
2018-04-19T09:35:14.553Z,51.70
2018-04-19T09:37:48.320Z,51.50
2018-04-19T09:40:21.935Z,49.10
2018-04-19T09:42:56.145Z,50.10
2018-04-19T09:45:30.689Z,48.40
2018-04-19T09:48:04.830Z,48.40
2018-04-19T09:50:39.290Z,46.80
2018-04-19T09:53:14.313Z,50.60
2018-04-19T09:55:48.133Z,50.60
2018-04-19T09:58:22.683Z,49.70
2018-04-19T10:01:04.159Z,50.40
2018-04-19T10:03:44.597Z,48.20
2018-04-19T10:06:18.667Z,48.50
2018-04-19T10:08:52.743Z,47.80
2018-04-19T10:11:26.746Z,46.50
2018-04-19T10:14:01.256Z,46.70
2018-04-19T10:16:36.240Z,47.50
2018-04-19T10:19:09.886Z,47.40
2018-04-19T10:21:44.630Z,48.30
2018-04-19T10:24:19.775Z,46.50
2018-04-19T10:26:54.287Z,45.20
2018-04-19T10:29:28.927Z,43.20
2018-04-19T10:32:02.395Z,43.10
2018-04-19T10:34:36.408Z,45.10
2018-04-19T10:37:11.083Z,46.90
2018-04-19T10:39:44.574Z,46.90
2018-04-19T10:42:18.419Z,45.60
2018-04-19T10:44:52.151Z,45.70
2018-04-19T10:47:26.298Z,47.40
2018-04-19T10:50:00.762Z,43.80
2018-04-19T10:52:35.413Z,44.10
2018-04-19T10:55:09.038Z,44.20
2018-04-19T10:57:43.218Z,45.70
2018-04-19T11:00:18.113Z,46.90
2018-04-19T11:02:52.221Z,46.70
2018-04-19T11:05:26.158Z,45.20
2018-04-19T11:08:01.183Z,45.30
2018-04-19T11:10:34.933Z,45.30
2018-04-19T11:13:09.412Z,42.50
2018-04-19T11:15:44.453Z,43.50
2018-04-19T11:18:19.080Z,44.60
2018-04-19T11:20:53.199Z,44.60
2018-04-19T11:23:26.932Z,43.00
2018-04-19T11:26:00.732Z,43.90
2018-04-19T11:28:36.204Z,45.50
2018-04-19T11:31:10.851Z,45.00
2018-04-19T11:33:46.382Z,42.60
2018-04-19T11:36:20.419Z,42.50
2018-04-19T11:38:55.143Z,41.90
2018-04-19T11:41:29.281Z,41.80
2018-04-19T11:44:05.407Z,41.50
2018-04-19T11:46:40.543Z,41.50
2018-04-19T11:49:15.403Z,40.80
2018-04-19T11:51:50.286Z,39.20
2018-04-19T11:54:24.064Z,39.20
2018-04-19T11:56:58.215Z,40.80
2018-04-19T11:59:31.894Z,39.20
2018-04-19T12:02:06.532Z,39.60
2018-04-19T12:04:41.397Z,42.10
2018-04-19T12:07:16.003Z,39.70
2018-04-19T12:09:50.898Z,39.40
2018-04-19T12:12:26.106Z,40.40
2018-04-19T12:14:59.747Z,40.60
2018-04-19T12:17:33.563Z,38.90
2018-04-19T12:20:08.954Z,39.90
2018-04-19T12:22:43.282Z,39.90
2018-04-19T12:25:17.991Z,41.60
2018-04-19T12:27:52.405Z,39.60
2018-04-19T12:30:28.091Z,38.50
2018-04-19T12:33:03.052Z,39.70
2018-04-19T12:35:37.230Z,39.50
2018-04-19T12:38:11.046Z,37.90
2018-04-19T12:40:45.873Z,38.50
2018-04-19T12:43:19.591Z,38.40
2018-04-19T12:45:53.686Z,37.20
2018-04-19T12:48:27.696Z,37.00
2018-04-19T12:51:02.286Z,35.00
2018-04-19T12:53:37.239Z,35.10
2018-04-19T12:56:11.821Z,33.40
2018-04-19T12:58:46.676Z,34.20
2018-04-19T13:01:20.711Z,34.30
2018-04-19T13:03:55.058Z,37.50
2018-04-19T13:06:28.847Z,35.10
2018-04-19T13:09:03.747Z,30.90
2018-04-19T13:11:37.464Z,30.90
2018-04-19T13:14:11.163Z,31.80
2018-04-19T13:16:45.831Z,34.50
2018-04-19T13:19:19.403Z,34.50
2018-04-19T13:21:53.323Z,31.40
2018-04-19T13:24:28.119Z,31.90
2018-04-19T13:27:03.085Z,31.00
2018-04-19T13:29:37.823Z,30.60
2018-04-19T13:32:11.590Z,30.50
2018-04-19T13:34:46.361Z,29.70
2018-04-19T13:37:21.632Z,29.60
2018-04-19T13:39:56.903Z,28.80
2018-04-19T13:42:30.692Z,28.80
2018-04-19T13:45:04.556Z,29.30
2018-04-19T13:47:38.598Z,29.20
2018-04-19T13:50:13.139Z,29.50
2018-04-19T13:52:47.746Z,29.80
2018-04-19T13:55:21.341Z,29.90
2018-04-19T13:57:55.332Z,28.40
2018-04-19T14:00:29.999Z,30.00
2018-04-19T14:03:03.861Z,29.60
2018-04-19T14:05:37.891Z,28.80
2018-04-19T14:08:12.551Z,28.00
2018-04-19T14:10:47.440Z,28.50
2018-04-19T14:13:21.897Z,28.40
2018-04-19T14:15:56.286Z,28.40
2018-04-19T14:18:31.157Z,26.90
2018-04-19T14:21:05.762Z,27.90
2018-04-19T14:23:39.449Z,27.80
2018-04-19T14:26:14.184Z,27.30
2018-04-19T14:28:47.971Z,27.30
2018-04-19T14:31:21.662Z,26.50
2018-04-19T14:33:56.492Z,25.90
2018-04-19T14:36:30.090Z,25.90
2018-04-19T14:39:06.622Z,27.30
2018-04-19T14:41:41.173Z,27.60
2018-04-19T14:44:15.103Z,27.50
2018-04-19T14:46:49.543Z,27.20
2018-04-19T14:49:24.840Z,27.80
2018-04-19T14:51:58.771Z,27.80
2018-04-19T14:54:33.296Z,27.60
2018-04-19T14:57:08.843Z,27.10
2018-04-19T14:59:43.413Z,26.30
2018-04-19T15:02:17.762Z,25.80
2018-04-19T15:04:51.823Z,25.80
2018-04-19T15:07:25.691Z,26.50
2018-04-19T15:09:59.597Z,26.10
2018-04-19T15:12:34.184Z,26.10
2018-04-19T15:15:08.939Z,28.40
2018-04-19T15:17:43.245Z,28.40
2018-04-19T15:20:18.201Z,26.10
2018-04-19T15:22:52.936Z,26.50
2018-04-19T15:25:27.040Z,26.50
2018-04-19T15:28:01.926Z,27.10
2018-04-19T15:30:35.776Z,26.80
2018-04-19T15:33:10.387Z,25.20
2018-04-19T15:35:45.168Z,26.70
2018-04-19T15:38:19.809Z,26.90
2018-04-19T15:40:54.531Z,26.90
2018-04-19T15:43:28.556Z,26.80
2018-04-19T15:46:02.983Z,27.40
2018-04-19T15:48:37.552Z,25.40
2018-04-19T15:51:11.532Z,25.30
2018-04-19T15:53:45.220Z,28.10
2018-04-19T15:56:18.848Z,27.50
2018-04-19T15:58:53.919Z,31.00
2018-04-19T16:01:27.803Z,31.00
2018-04-19T16:04:01.564Z,30.70
2018-04-19T16:06:35.392Z,29.40
2018-04-19T16:09:09.990Z,32.30
2018-04-19T16:11:52.851Z,32.30
2018-04-19T16:14:18.022Z,31.20
2018-04-19T16:16:52.043Z,31.10
2018-04-19T16:19:25.555Z,34.50
2018-04-19T16:21:59.137Z,34.10
2018-04-19T16:24:33.038Z,33.50
2018-04-19T16:27:07.984Z,33.60
2018-04-19T16:29:41.677Z,33.50
2018-04-19T16:32:16.206Z,34.10
2018-04-19T16:34:49.883Z,34.10
2018-04-19T16:37:24.682Z,34.30
2018-04-19T16:39:59.067Z,33.50
2018-04-19T16:42:33.359Z,35.30
2018-04-19T16:45:07.247Z,35.30
2018-04-19T16:47:41.763Z,36.50
2018-04-19T16:50:15.284Z,36.50
2018-04-19T16:52:48.776Z,37.20
2018-04-19T16:55:22.270Z,36.90
2018-04-19T16:57:57.020Z,35.40
2018-04-19T17:00:30.553Z,35.30
2018-04-19T17:03:04.184Z,37.00
2018-04-19T17:05:37.969Z,37.40
2018-04-19T17:08:12.437Z,37.40
2018-04-19T17:10:46.200Z,37.50
2018-04-19T17:13:20.842Z,38.50
2018-04-19T17:15:54.940Z,38.40
2018-04-19T17:18:29.789Z,39.80
2018-04-19T17:21:03.612Z,39.70
2018-04-19T17:23:37.339Z,39.40
2018-04-19T17:26:11.252Z,39.70
2018-04-19T17:28:46.473Z,40.70
2018-04-19T17:31:20.419Z,41.10
2018-04-19T17:33:54.100Z,39.90
2018-04-19T17:36:28.041Z,38.70
2018-04-19T17:39:01.932Z,38.20
2018-04-19T17:41:35.763Z,38.20
2018-04-19T17:44:10.873Z,38.30
2018-04-19T17:46:44.932Z,38.70
2018-04-19T17:49:18.809Z,39.60
2018-04-19T17:51:52.454Z,39.30
2018-04-19T17:54:27.354Z,41.00
2018-04-19T17:57:00.919Z,40.90
2018-04-19T17:59:35.089Z,41.80
2018-04-19T18:02:08.577Z,42.30
2018-04-19T18:04:42.234Z,43.10
2018-04-19T18:07:15.930Z,42.80
2018-04-19T18:09:50.464Z,44.40
2018-04-19T18:12:24.742Z,45.40
2018-04-19T18:14:59.263Z,44.90
2018-04-19T18:17:33.090Z,44.90
2018-04-19T18:20:06.710Z,46.60
2018-04-19T18:22:41.377Z,47.60
2018-04-19T18:25:15.725Z,48.60
2018-04-19T18:27:50.216Z,49.20
2018-04-19T18:30:24.087Z,49.10
2018-04-19T18:32:59.053Z,49.40
2018-04-19T18:35:32.854Z,49.40
2018-04-19T18:38:07.272Z,49.60
2018-04-19T18:40:41.013Z,49.60
2018-04-19T18:43:14.910Z,49.90
2018-04-19T18:45:49.271Z,50.90
2018-04-19T18:48:23.290Z,50.50
2018-04-19T18:50:58.797Z,51.30
2018-04-19T18:53:32.643Z,51.30
2018-04-19T18:56:06.384Z,53.00
2018-04-19T18:58:40.033Z,52.80
2018-04-19T19:01:14.310Z,53.80
2018-04-19T19:03:47.820Z,53.90
2018-04-19T19:06:21.353Z,55.00
2018-04-19T19:08:56.012Z,57.90
2018-04-19T19:11:29.973Z,57.80
2018-04-19T19:14:04.739Z,62.00
2018-04-19T19:16:39.467Z,65.40
2018-04-19T19:19:25.927Z,70.70
2018-04-19T19:22:00.291Z,76.60
2018-04-19T19:24:33.804Z,76.50
2018-04-19T19:27:07.407Z,80.20
2018-04-19T19:29:40.983Z,81.30
2018-04-19T19:32:15.366Z,84.90
2018-04-19T19:34:49.066Z,84.90
2018-04-19T19:37:22.987Z,85.40
2018-04-19T19:39:56.851Z,85.90
2018-04-19T19:42:31.376Z,88.70
2018-04-19T19:45:05.827Z,90.40
2018-04-19T19:47:40.350Z,90.70
2018-04-19T19:50:15.018Z,90.40
2018-04-19T19:52:49.052Z,90.40
2018-04-19T19:55:23.480Z,90.00
2018-04-19T19:57:58.060Z,90.50
2018-04-19T20:00:32.922Z,90.60
2018-04-19T20:03:07.308Z,91.30
2018-04-19T20:05:41.093Z,91.30
2018-04-19T20:08:15.508Z,91.10
2018-04-19T20:10:49.071Z,91.10
2018-04-19T20:13:23.518Z,92.00
2018-04-19T20:15:58.231Z,92.40
2018-04-19T20:18:32.759Z,92.80
2018-04-19T20:21:07.150Z,93.30
2018-04-19T20:23:40.999Z,93.30
2018-04-19T20:26:15.712Z,93.30
2018-04-19T20:28:50.357Z,93.30
2018-04-19T20:31:24.023Z,93.30
2018-04-19T20:33:58.787Z,94.30
2018-04-19T20:36:33.537Z,94.10
2018-04-19T20:39:08.125Z,93.80
2018-04-19T20:41:42.844Z,93.90
2018-04-19T20:44:17.592Z,94.10
2018-04-19T20:46:51.472Z,94.00
2018-04-19T20:49:26.123Z,94.50
2018-04-19T20:52:00.951Z,94.50
2018-04-19T20:54:35.653Z,94.60
2018-04-19T20:57:09.857Z,94.60
2018-04-19T20:59:43.595Z,94.90
2018-04-19T21:02:18.449Z,94.80
2018-04-19T21:04:52.308Z,94.80
2018-04-19T21:07:26.159Z,95.00
2018-04-19T21:10:00.737Z,95.30
2018-04-19T21:12:34.531Z,94.90
2018-04-19T21:15:09.359Z,95.50
2018-04-19T21:17:44.068Z,96.30
2018-04-19T21:20:19.012Z,96.20
2018-04-19T21:22:53.498Z,96.40
2018-04-19T21:25:28.863Z,96.00
2018-04-19T21:28:03.589Z,96.30
2018-04-19T21:30:37.410Z,96.30
2018-04-19T21:33:11.401Z,96.00
2018-04-19T21:35:46.002Z,97.20
2018-04-19T21:38:20.644Z,97.50
2018-04-19T21:40:55.493Z,97.10
2018-04-19T21:43:31.157Z,96.70
2018-04-19T21:46:04.830Z,96.70
2018-04-19T21:48:39.834Z,96.80
2018-04-19T21:51:14.997Z,97.00
2018-04-19T21:53:49.167Z,97.00
2018-04-19T21:56:23.896Z,97.10
2018-04-19T21:58:59.537Z,97.20
2018-04-19T22:01:34.490Z,96.70
2018-04-19T22:04:08.929Z,96.60
2018-04-19T22:06:43.275Z,97.20
2018-04-19T22:09:17.165Z,97.20
2018-04-19T22:11:51.983Z,97.80
2018-04-19T22:14:25.791Z,97.80
2018-04-19T22:17:00.627Z,98.50
2018-04-19T22:19:35.162Z,98.50
2018-04-19T22:22:09.220Z,98.50
2018-04-19T22:24:43.791Z,98.60
2018-04-19T22:27:17.634Z,98.60
2018-04-19T22:29:52.416Z,98.80
2018-04-19T22:32:27.833Z,98.80
2018-04-19T22:35:02.576Z,99.20
2018-04-19T22:37:37.296Z,98.40
2018-04-19T22:40:11.738Z,99.00
2018-04-19T22:42:46.986Z,99.30
2018-04-19T22:45:21.146Z,99.20
2018-04-19T22:47:55.183Z,99.70
2018-04-19T22:50:28.913Z,99.60
2018-04-19T22:53:02.619Z,99.50
2018-04-19T22:55:37.651Z,99.50
2018-04-19T22:58:12.256Z,99.90
2018-04-19T23:00:47.088Z,99.90
2018-04-19T23:03:21.180Z,99.90
2018-04-19T23:05:54.904Z,99.70
2018-04-19T23:08:29.838Z,99.90
2018-04-19T23:11:03.612Z,99.90
2018-04-19T23:13:38.299Z,99.90
2018-04-19T23:16:12.949Z,99.90
2018-04-19T23:18:47.211Z,99.90
2018-04-19T23:21:21.711Z,99.90
2018-04-19T23:23:55.312Z,99.90
2018-04-19T23:26:30.752Z,99.90
2018-04-19T23:29:05.551Z,99.90
2018-04-19T23:31:40.408Z,99.90
2018-04-19T23:34:14.928Z,99.90
2018-04-19T23:36:49.841Z,99.90
2018-04-19T23:39:24.290Z,99.90
2018-04-19T23:41:59.471Z,99.90
2018-04-19T23:44:34.141Z,99.90
2018-04-19T23:47:08.654Z,99.90
2018-04-19T23:49:42.699Z,99.90
